Time;durP1;ratioP1;P1;durP2;ratioP2;P2;SDS_P1;SDS_P2;PMS_P1;PMS_P2;Temp;Humidity;BMP_temperature;BMP_pressure;BME280_temperature;BME280_humidity;BME280_pressure;Samples;Min_cycle;Max_cycle;Signal;HPM_P1;HPM_P2
2022/11/13 03:58:43;;;;;;;;;;;7.70;99.90;;;;;;6177392;23;20015;-84
2022/11/13 04:01:27;;;;;;;;;;;7.80;99.90;;;;;;6184017;23;19918;-84
2022/11/13 04:04:11;;;;;;;;;;;7.70;99.90;;;;;;6184483;23;19912;-85
2022/11/13 04:06:55;;;;;;;;;;;7.70;99.90;;;;;;6166294;23;19914;-84
2022/11/13 04:09:39;;;;;;;;;;;7.60;99.90;;;;;;6214051;23;19910;-84
2022/11/13 04:12:23;;;;;;;;;;;7.60;99.90;;;;;;6214395;23;19926;-84
2022/11/13 04:15:08;;;;;;;;;;;7.60;99.90;;;;;;6235014;23;20285;-85
2022/11/13 04:17:52;;;;;;;;;;;7.50;99.90;;;;;;6244302;23;20345;-84
2022/11/13 04:20:36;;;;;;;;;;;7.50;99.90;;;;;;6221608;23;19911;-84
2022/11/13 04:23:20;;;;;;;;;;;7.50;99.90;;;;;;6221926;23;19911;-84
2022/11/13 04:26:04;;;;;;;;;;;7.40;99.90;;;;;;6244047;23;19965;-85
2022/11/13 04:28:48;;;;;;;;;;;7.50;99.90;;;;;;6244174;23;20341;-85
2022/11/13 04:31:33;;;;;;;;;;;7.40;99.90;;;;;;6244592;23;19969;-84
2022/11/13 04:34:17;;;;;;;;;;;7.40;99.90;;;;;;6244645;23;19987;-84
2022/11/13 04:37:02;;;;;;;;;;;7.40;99.90;;;;;;6244283;23;20262;-85
2022/11/13 04:39:46;;;;;;;;;;;7.30;99.90;;;;;;6244189;23;19926;-84
2022/11/13 04:42:48;;;;;;;;;;;7.30;99.90;;;;;;6244496;23;20250;-84
2022/11/13 04:45:33;;;;;;;;;;;7.30;99.90;;;;;;6221744;23;19910;-84
2022/11/13 04:48:17;;;;;;;;;;;7.30;99.90;;;;;;6244275;23;19957;-84
2022/11/13 04:51:02;;;;;;;;;;;7.20;99.90;;;;;;6244663;23;19934;-85
2022/11/13 04:53:46;;;;;;;;;;;7.30;99.90;;;;;;6244341;23;20249;-84
2022/11/13 04:56:31;;;;;;;;;;;7.30;99.90;;;;;;6244355;23;19916;-84
2022/11/13 04:59:15;;;;;;;;;;;7.20;99.90;;;;;;6244026;23;19934;-84
2022/11/13 05:02:00;;;;;;;;;;;7.20;99.90;;;;;;6244602;23;19967;-84
2022/11/13 05:04:43;;;;;;;;;;;7.10;99.90;;;;;;6244894;23;19927;-84
2022/11/13 05:07:28;;;;;;;;;;;7.10;99.90;;;;;;6244099;23;19996;-84
2022/11/13 05:10:12;;;;;;;;;;;7.10;99.90;;;;;;6244083;23;19910;-84
2022/11/13 05:12:56;;;;;;;;;;;7.10;99.90;;;;;;6244074;23;19914;-85
2022/11/13 05:15:40;;;;;;;;;;;7.00;99.90;;;;;;6243829;23;19909;-85
2022/11/13 05:18:25;;;;;;;;;;;7.00;99.90;;;;;;6243927;23;19949;-84
2022/11/13 05:21:09;;;;;;;;;;;7.00;99.90;;;;;;6244398;23;19953;-85
2022/11/13 05:23:54;;;;;;;;;;;7.00;99.90;;;;;;6244095;23;19910;-84
2022/11/13 05:26:38;;;;;;;;;;;7.00;99.90;;;;;;6243591;23;20266;-84
2022/11/13 05:29:22;;;;;;;;;;;7.00;99.90;;;;;;6243733;23;19990;-84
2022/11/13 05:32:06;;;;;;;;;;;7.00;99.90;;;;;;6244255;23;19914;-84
2022/11/13 05:34:50;;;;;;;;;;;6.90;99.90;;;;;;6243800;23;19910;-85
2022/11/13 05:37:34;;;;;;;;;;;6.90;99.90;;;;;;6243476;23;19910;-84
2022/11/13 05:40:19;;;;;;;;;;;7.00;99.90;;;;;;6220927;23;19911;-84
2022/11/13 05:43:03;;;;;;;;;;;7.00;99.90;;;;;;6243848;23;19910;-84
2022/11/13 05:45:47;;;;;;;;;;;6.90;99.90;;;;;;6243695;23;20381;-84
2022/11/13 05:48:32;;;;;;;;;;;6.90;99.90;;;;;;6243476;23;19954;-84
2022/11/13 05:51:18;;;;;;;;;;;6.80;99.90;;;;;;6243776;23;19914;-84
2022/11/13 05:54:02;;;;;;;;;;;6.80;99.90;;;;;;6243842;23;20295;-84
2022/11/13 05:56:46;;;;;;;;;;;6.80;99.90;;;;;;6220967;23;19914;-84
2022/11/13 05:59:31;;;;;;;;;;;6.90;99.90;;;;;;6243591;23;20062;-84
2022/11/13 06:02:15;;;;;;;;;;;6.70;99.90;;;;;;6243752;23;19910;-84
2022/11/13 06:04:59;;;;;;;;;;;6.70;99.90;;;;;;6244017;23;19910;-84
2022/11/13 06:07:43;;;;;;;;;;;6.70;99.90;;;;;;6243307;23;19914;-84
2022/11/13 06:10:27;;;;;;;;;;;6.60;99.90;;;;;;6243373;23;20253;-84
2022/11/13 06:13:12;;;;;;;;;;;6.60;99.90;;;;;;6243737;23;20333;-84
2022/11/13 06:16:00;;;;;;;;;;;6.60;99.90;;;;;;6243865;23;19965;-84
2022/11/13 06:18:45;;;;;;;;;;;6.60;99.90;;;;;;6243526;23;19910;-84
2022/11/13 06:21:30;;;;;;;;;;;6.60;99.90;;;;;;6243698;23;19911;-84
2022/11/13 06:24:14;;;;;;;;;;;6.50;99.90;;;;;;6243797;23;20083;-84
2022/11/13 06:26:58;;;;;;;;;;;6.50;99.90;;;;;;6243136;23;19964;-84
2022/11/13 06:29:43;;;;;;;;;;;6.50;99.90;;;;;;6243885;23;19956;-85
2022/11/13 06:32:27;;;;;;;;;;;6.60;99.90;;;;;;6243637;23;20037;-85
2022/11/13 06:35:11;;;;;;;;;;;6.60;99.90;;;;;;6243461;23;19910;-85
2022/11/13 06:37:55;;;;;;;;;;;6.50;99.90;;;;;;6243212;23;19910;-85
2022/11/13 06:40:39;;;;;;;;;;;6.40;99.90;;;;;;6220672;23;20372;-85
2022/11/13 06:43:24;;;;;;;;;;;6.60;99.90;;;;;;6243573;23;20250;-85
2022/11/13 06:46:12;;;;;;;;;;;6.60;99.90;;;;;;6243327;23;20388;-85
2022/11/13 06:48:57;;;;;;;;;;;6.60;99.90;;;;;;6243474;23;19961;-85
2022/11/13 06:51:41;;;;;;;;;;;6.50;99.90;;;;;;6245356;23;19975;-85
2022/11/13 06:54:25;;;;;;;;;;;6.50;99.90;;;;;;6246450;23;19910;-85
2022/11/13 06:57:10;;;;;;;;;;;6.60;99.90;;;;;;6245165;23;20454;-83
2022/11/13 06:59:54;;;;;;;;;;;6.60;99.90;;;;;;6245178;23;19973;-83
2022/11/13 07:02:38;;;;;;;;;;;6.60;99.90;;;;;;6245322;23;20237;-83
2022/11/13 07:05:23;;;;;;;;;;;6.60;99.90;;;;;;6245478;23;19910;-84
2022/11/13 07:08:07;;;;;;;;;;;6.60;99.90;;;;;;6245191;23;20361;-84
2022/11/13 07:10:53;;;;;;;;;;;6.50;99.90;;;;;;6244880;23;19910;-84
2022/11/13 07:13:37;;;;;;;;;;;6.60;99.90;;;;;;6245276;23;19910;-84
2022/11/13 07:16:22;;;;;;;;;;;6.60;99.90;;;;;;6245201;23;19998;-84
2022/11/13 07:19:06;;;;;;;;;;;6.60;99.90;;;;;;6244931;23;19991;-84
2022/11/13 07:21:50;;;;;;;;;;;6.50;99.90;;;;;;6245809;23;20318;-84
2022/11/13 07:24:34;;;;;;;;;;;6.60;99.90;;;;;;6245235;23;19953;-84
2022/11/13 07:27:18;;;;;;;;;;;6.50;99.90;;;;;;6244728;23;19919;-84
2022/11/13 07:30:02;;;;;;;;;;;6.60;99.90;;;;;;6244898;23;19911;-83
2022/11/13 07:32:47;;;;;;;;;;;6.60;99.90;;;;;;6245121;23;19950;-83
2022/11/13 07:35:31;;;;;;;;;;;6.60;99.90;;;;;;6245503;23;19926;-83
2022/11/13 07:38:15;;;;;;;;;;;6.50;99.90;;;;;;6244947;23;19953;-83
2022/11/13 07:40:59;;;;;;;;;;;6.60;99.90;;;;;;6244821;23;19938;-83
2022/11/13 07:43:43;;;;;;;;;;;6.70;99.90;;;;;;6245120;23;19910;-83
2022/11/13 07:46:27;;;;;;;;;;;6.70;99.90;;;;;;6244806;23;20371;-83
2022/11/13 07:49:12;;;;;;;;;;;6.70;99.90;;;;;;6244731;23;19914;-83
2022/11/13 07:51:56;;;;;;;;;;;6.70;99.90;;;;;;6244932;23;20372;-83
2022/11/13 07:54:40;;;;;;;;;;;6.70;99.90;;;;;;6244838;23;19995;-85
2022/11/13 07:57:26;;;;;;;;;;;6.70;99.90;;;;;;6244384;23;20384;-85
2022/11/13 08:00:10;;;;;;;;;;;6.80;99.90;;;;;;6244516;23;20289;-83
2022/11/13 08:02:54;;;;;;;;;;;6.80;99.90;;;;;;6244736;23;19949;-83
2022/11/13 08:05:38;;;;;;;;;;;6.90;99.90;;;;;;6244634;23;19911;-83
2022/11/13 08:08:23;;;;;;;;;;;6.90;99.90;;;;;;6244719;23;19914;-83
2022/11/13 08:11:08;;;;;;;;;;;7.00;99.90;;;;;;6221918;23;19914;-83
2022/11/13 08:13:52;;;;;;;;;;;6.90;99.90;;;;;;6244785;23;19911;-83
2022/11/13 08:16:36;;;;;;;;;;;6.90;99.90;;;;;;6244471;23;19949;-83
2022/11/13 08:19:20;;;;;;;;;;;7.00;99.90;;;;;;6221727;23;19911;-84
2022/11/13 08:22:04;;;;;;;;;;;7.00;99.90;;;;;;6244942;23;19911;-83
2022/11/13 08:24:48;;;;;;;;;;;7.10;99.90;;;;;;6244622;23;19911;-83
2022/11/13 08:27:32;;;;;;;;;;;7.20;99.90;;;;;;6244246;23;20006;-83
2022/11/13 08:30:18;;;;;;;;;;;7.20;99.90;;;;;;6244187;23;19956;-83
2022/11/13 08:33:02;;;;;;;;;;;7.30;99.90;;;;;;6244477;23;19911;-83
2022/11/13 08:35:56;;;;;;;;;;;7.40;99.90;;;;;;6221592;23;20332;-83
2022/11/13 08:38:41;;;;;;;;;;;7.50;99.90;;;;;;6221267;23;19911;-83
2022/11/13 08:41:25;;;;;;;;;;;7.60;99.90;;;;;;6244349;23;19950;-83
2022/11/13 08:44:11;;;;;;;;;;;7.60;99.90;;;;;;6244303;23;19918;-83
2022/11/13 08:46:56;;;;;;;;;;;7.80;99.90;;;;;;6244306;23;19998;-83
2022/11/13 08:49:40;;;;;;;;;;;7.80;99.90;;;;;;6244142;23;19934;-83
2022/11/13 08:52:24;;;;;;;;;;;7.90;99.90;;;;;;6244354;23;19926;-83
2022/11/13 08:55:08;;;;;;;;;;;8.00;99.90;;;;;;6244177;23;20266;-84
2022/11/13 08:57:52;;;;;;;;;;;8.10;99.90;;;;;;6243838;23;20418;-83
2022/11/13 09:00:36;;;;;;;;;;;8.10;99.90;;;;;;6244340;23;19933;-83
2022/11/13 09:03:21;;;;;;;;;;;8.20;99.90;;;;;;6244212;23;19918;-83
2022/11/13 09:06:05;;;;;;;;;;;8.20;99.90;;;;;;6243923;23;20257;-83
2022/11/13 09:08:50;;;;;;;;;;;8.30;99.90;;;;;;6243895;23;19976;-83
2022/11/13 09:11:34;;;;;;;;;;;8.40;99.90;;;;;;6244427;23;19965;-83
2022/11/13 09:14:18;;;;;;;;;;;8.40;99.90;;;;;;6243796;23;20279;-83
2022/11/13 09:17:02;;;;;;;;;;;8.50;99.90;;;;;;6243759;23;19946;-83
2022/11/13 09:19:47;;;;;;;;;;;8.60;99.90;;;;;;6243837;23;19918;-84
2022/11/13 09:22:31;;;;;;;;;;;8.70;99.90;;;;;;6221216;23;19957;-83
2022/11/13 09:25:15;;;;;;;;;;;8.70;99.90;;;;;;6243805;23;19919;-83
2022/11/13 09:28:00;;;;;;;;;;;8.80;99.90;;;;;;6243216;23;20392;-83
2022/11/13 09:30:44;;;;;;;;;;;8.80;99.90;;;;;;6243398;23;19914;-83
2022/11/13 09:33:28;;;;;;;;;;;8.90;99.90;;;;;;6220949;23;19909;-83
2022/11/13 09:36:14;;;;;;;;;;;9.00;99.90;;;;;;6243822;23;19969;-83
2022/11/13 09:38:59;;;;;;;;;;;9.00;99.90;;;;;;6220689;23;19966;-83
2022/11/13 09:41:49;;;;;;;;;;;9.10;99.90;;;;;;6242940;23;20285;-83
2022/11/13 09:44:37;;;;;;;;;;;9.10;99.90;;;;;;6243410;23;19957;-83
2022/11/13 09:47:25;;;;;;;;;;;9.10;99.90;;;;;;6243284;23;19915;-83
2022/11/13 09:50:21;;;;;;;;;;;9.20;99.90;;;;;;6243289;23;19911;-83
2022/11/13 09:53:05;;;;;;;;;;;9.20;99.90;;;;;;6243709;23;19950;-83
2022/11/13 09:56:02;;;;;;;;;;;9.30;99.90;;;;;;6243498;23;19930;-84
2022/11/13 15:59:00;;;;;;;;;;;11.60;99.90;;;;;;6152234;23;19932;-83
2022/11/13 16:01:45;;;;;;;;;;;11.60;99.90;;;;;;6162196;23;19911;-85
2022/11/13 16:04:30;;;;;;;;;;;11.50;99.90;;;;;;6162354;23;19992;-85
2022/11/13 16:07:20;;;;;;;;;;;11.60;99.90;;;;;;6184348;23;19919;-85
2022/11/13 16:10:04;;;;;;;;;;;11.60;99.90;;;;;;6209168;23;19962;-85
2022/11/13 16:12:49;;;;;;;;;;;11.50;99.90;;;;;;6192047;23;19915;-85
2022/11/13 16:15:33;;;;;;;;;;;11.50;99.90;;;;;;6192103;23;19958;-85
2022/11/13 16:18:21;;;;;;;;;;;11.50;99.90;;;;;;6192103;23;19927;-85
2022/11/13 16:21:07;;;;;;;;;;;11.50;99.90;;;;;;6214794;23;20286;-85
2022/11/13 16:23:51;;;;;;;;;;;11.40;99.90;;;;;;6214617;23;19939;-85
2022/11/13 16:26:36;;;;;;;;;;;11.40;99.90;;;;;;6214519;23;20334;-85
2022/11/13 16:29:21;;;;;;;;;;;11.40;99.90;;;;;;6214341;23;19991;-85
2022/11/13 16:32:10;;;;;;;;;;;11.40;99.90;;;;;;6192134;23;20484;-86
2022/11/13 16:34:54;;;;;;;;;;;11.40;99.90;;;;;;6214540;23;20329;-86
2022/11/13 16:37:38;;;;;;;;;;;11.30;99.90;;;;;;6214477;23;19910;-85
2022/11/13 16:40:24;;;;;;;;;;;11.30;99.90;;;;;;6191682;23;20410;-85
2022/11/13 16:43:09;;;;;;;;;;;11.30;99.90;;;;;;6191924;23;19911;-85
2022/11/13 16:45:53;;;;;;;;;;;11.30;99.90;;;;;;6214161;23;19991;-85
2022/11/13 16:48:37;;;;;;;;;;;11.30;99.90;;;;;;6214067;23;20341;-85
2022/11/13 16:51:21;;;;;;;;;;;11.30;99.90;;;;;;6214423;23;19910;-85
2022/11/13 16:54:05;;;;;;;;;;;11.20;99.90;;;;;;6191914;23;19911;-85
2022/11/13 16:56:50;;;;;;;;;;;11.20;99.90;;;;;;6191661;23;19911;-85
2022/11/13 16:59:34;;;;;;;;;;;11.30;99.90;;;;;;6214145;23;20033;-85
2022/11/13 17:02:18;;;;;;;;;;;11.20;99.90;;;;;;6214448;23;19950;-85
2022/11/13 17:05:02;;;;;;;;;;;11.20;99.90;;;;;;6214405;23;19911;-85
2022/11/13 17:07:49;;;;;;;;;;;11.20;99.90;;;;;;6214152;23;19966;-85
2022/11/13 17:10:34;;;;;;;;;;;11.20;99.90;;;;;;6214127;23;19958;-85
2022/11/13 17:13:18;;;;;;;;;;;11.20;99.90;;;;;;6214373;23;19911;-85
2022/11/13 17:16:02;;;;;;;;;;;11.10;99.90;;;;;;6213866;23;19950;-85
2022/11/13 17:18:52;;;;;;;;;;;11.10;99.90;;;;;;6213697;23;19915;-85
2022/11/13 17:21:39;;;;;;;;;;;11.10;99.90;;;;;;6214062;23;19987;-86
2022/11/13 17:24:23;;;;;;;;;;;11.10;99.90;;;;;;6213965;23;19911;-85
2022/11/13 17:27:07;;;;;;;;;;;11.10;99.90;;;;;;6203965;23;19926;-85
2022/11/13 17:29:51;;;;;;;;;;;11.10;99.90;;;;;;6243778;23;19910;-85
2022/11/13 17:32:35;;;;;;;;;;;11.10;99.90;;;;;;6244164;23;20424;-85
2022/11/13 17:35:19;;;;;;;;;;;11.10;99.90;;;;;;6243868;23;20257;-85
2022/11/13 17:38:04;;;;;;;;;;;11.10;99.90;;;;;;6243757;23;19911;-85
2022/11/13 17:40:48;;;;;;;;;;;11.10;99.90;;;;;;6243584;23;19906;-85
2022/11/13 17:43:36;;;;;;;;;;;11.10;99.90;;;;;;6244076;23;19978;-85
2022/11/13 17:46:20;;;;;;;;;;;11.10;99.90;;;;;;6243911;23;19910;-85
2022/11/13 17:49:06;;;;;;;;;;;11.10;99.90;;;;;;6243608;23;19993;-85
2022/11/13 17:51:51;;;;;;;;;;;11.10;99.90;;;;;;6221915;23;19910;-85
2022/11/13 17:54:36;;;;;;;;;;;11.20;99.90;;;;;;6244074;23;20011;-85
2022/11/13 17:57:20;;;;;;;;;;;11.10;99.90;;;;;;6220898;23;19911;-85
2022/11/13 18:00:05;;;;;;;;;;;11.20;99.90;;;;;;6243689;23;19914;-85
2022/11/13 18:02:49;;;;;;;;;;;11.20;99.90;;;;;;6243880;23;19911;-85
2022/11/13 18:05:34;;;;;;;;;;;11.20;99.90;;;;;;6243990;23;19950;-85
2022/11/13 18:08:18;;;;;;;;;;;11.20;99.90;;;;;;6221088;23;20380;-86
2022/11/13 18:11:18;;;;;;;;;;;11.20;99.90;;;;;;6243993;23;19953;-85
2022/11/13 18:14:01;;;;;;;;;;;11.20;99.90;;;;;;6220951;23;19950;-85
2022/11/13 18:16:46;;;;;;;;;;;11.20;99.90;;;;;;6243970;23;19957;-85
2022/11/13 18:19:30;;;;;;;;;;;11.20;99.90;;;;;;6243289;23;19918;-85
2022/11/13 18:22:14;;;;;;;;;;;11.20;99.90;;;;;;6243623;23;19926;-85
2022/11/13 18:25:00;;;;;;;;;;;11.20;99.90;;;;;;6243525;23;20313;-85
2022/11/13 18:27:44;;;;;;;;;;;11.20;99.90;;;;;;6243306;23;19918;-85
2022/11/13 18:30:28;;;;;;;;;;;11.20;99.90;;;;;;6220647;23;19911;-85
2022/11/13 18:33:12;;;;;;;;;;;11.20;99.90;;;;;;6243602;23;19911;-85
2022/11/13 18:35:57;;;;;;;;;;;11.20;99.90;;;;;;6220804;23;19993;-85
2022/11/13 18:38:42;;;;;;;;;;;11.20;99.90;;;;;;6243337;23;19910;-85
2022/11/13 18:41:26;;;;;;;;;;;11.10;99.90;;;;;;6243693;23;20387;-85
2022/11/13 18:44:10;;;;;;;;;;;11.10;99.90;;;;;;6220848;23;20293;-85
2022/11/13 18:46:54;;;;;;;;;;;11.10;99.90;;;;;;6244563;23;19949;-85
2022/11/13 18:49:39;;;;;;;;;;;11.10;99.90;;;;;;6245280;23;19914;-85
2022/11/13 18:52:23;;;;;;;;;;;11.10;99.90;;;;;;6245664;23;20344;-85
2022/11/13 18:55:08;;;;;;;;;;;11.10;99.90;;;;;;6245528;23;19910;-85
2022/11/13 18:57:52;;;;;;;;;;;11.10;99.90;;;;;;6245648;23;19911;-85
2022/11/13 19:00:36;;;;;;;;;;;11.00;99.90;;;;;;6245371;23;20049;-85
2022/11/13 19:03:22;;;;;;;;;;;11.00;99.90;;;;;;6222693;23;19915;-85
2022/11/13 19:06:10;;;;;;;;;;;11.00;99.90;;;;;;6222434;23;19911;-85
2022/11/13 19:08:56;;;;;;;;;;;11.00;99.90;;;;;;6244941;23;19914;-85
2022/11/13 19:11:41;;;;;;;;;;;11.00;99.90;;;;;;6222755;23;19911;-85
2022/11/13 19:14:25;;;;;;;;;;;11.00;99.90;;;;;;6245649;23;19911;-89
2022/11/13 19:17:10;;;;;;;;;;;11.00;99.90;;;;;;6245272;23;20147;-85
2022/11/13 19:19:54;;;;;;;;;;;11.10;99.90;;;;;;6245018;23;19910;-85
2022/11/13 19:22:38;;;;;;;;;;;11.10;99.90;;;;;;6222732;23;20130;-85
2022/11/13 19:25:22;;;;;;;;;;;11.10;99.90;;;;;;6245439;23;20099;-85
2022/11/13 19:28:06;;;;;;;;;;;11.10;99.90;;;;;;6245092;23;19918;-85
2022/11/13 19:30:53;;;;;;;;;;;11.10;99.90;;;;;;6244877;23;19949;-85
2022/11/13 19:33:37;;;;;;;;;;;11.10;99.90;;;;;;6245239;23;19910;-85
2022/11/13 19:36:24;;;;;;;;;;;11.10;99.90;;;;;;6222184;23;19910;-85
2022/11/13 19:39:08;;;;;;;;;;;11.10;99.90;;;;;;6244829;23;19911;-85
2022/11/13 19:41:52;;;;;;;;;;;11.00;99.90;;;;;;6245171;23;19910;-85
2022/11/13 19:44:36;;;;;;;;;;;10.90;99.90;;;;;;6245535;23;19954;-85
2022/11/13 19:47:21;;;;;;;;;;;10.90;99.90;;;;;;6244815;23;19914;-85
2022/11/13 19:50:05;;;;;;;;;;;10.90;99.90;;;;;;6244673;23;20241;-85
2022/11/13 19:52:49;;;;;;;;;;;10.80;99.90;;;;;;6245022;23;19926;-85
2022/11/13 19:55:33;;;;;;;;;;;10.80;99.90;;;;;;6245140;23;19985;-85
2022/11/13 19:58:18;;;;;;;;;;;10.80;99.90;;;;;;6221815;23;19994;-85
2022/11/13 20:01:22;;;;;;;;;;;10.80;99.90;;;;;;6244832;23;20345;-85
2022/11/13 20:04:09;;;;;;;;;;;10.70;99.90;;;;;;6244891;23;19914;-84
2022/11/13 20:06:56;;;;;;;;;;;10.70;99.90;;;;;;6244850;23;19995;-85
2022/11/13 20:09:40;;;;;;;;;;;10.60;99.90;;;;;;6221626;23;19914;-85
2022/11/13 20:12:26;;;;;;;;;;;10.60;99.90;;;;;;6244896;23;19910;-85
2022/11/13 20:15:11;;;;;;;;;;;10.50;99.90;;;;;;6244788;23;19911;-85
2022/11/13 20:17:55;;;;;;;;;;;10.50;99.90;;;;;;6244528;23;20402;-85
2022/11/13 20:20:41;;;;;;;;;;;10.40;99.90;;;;;;6221822;23;20141;-85
2022/11/13 20:23:25;;;;;;;;;;;10.40;99.90;;;;;;6244677;23;20116;-85
2022/11/13 20:26:12;;;;;;;;;;;10.30;99.90;;;;;;6244485;23;19910;-84
2022/11/13 20:28:56;;;;;;;;;;;10.20;99.90;;;;;;6244565;23;19918;-85
2022/11/13 20:31:40;;;;;;;;;;;10.10;99.90;;;;;;6244581;23;19911;-85
2022/11/13 20:34:25;;;;;;;;;;;10.00;99.90;;;;;;6244591;23;19929;-85
2022/11/13 20:37:09;;;;;;;;;;;9.90;99.90;;;;;;6244326;23;19995;-84
2022/11/13 20:39:53;;;;;;;;;;;9.80;99.90;;;;;;6244104;23;19946;-85
2022/11/13 20:42:38;;;;;;;;;;;9.80;99.90;;;;;;6244675;23;19994;-85
2022/11/13 20:45:22;;;;;;;;;;;9.70;99.90;;;;;;6244486;23;19986;-85
2022/11/13 20:48:06;;;;;;;;;;;9.70;99.90;;;;;;6221565;23;19918;-84
2022/11/13 20:50:50;;;;;;;;;;;9.70;99.90;;;;;;6244586;23;19906;-85
2022/11/13 20:53:34;;;;;;;;;;;9.50;99.90;;;;;;6244458;23;19910;-85
2022/11/13 20:56:20;;;;;;;;;;;9.50;99.90;;;;;;6244165;23;19953;-85
2022/11/13 20:59:04;;;;;;;;;;;9.50;99.90;;;;;;6243917;23;19915;-85
2022/11/13 21:01:49;;;;;;;;;;;9.40;99.90;;;;;;6244302;23;20300;-85
2022/11/13 21:04:33;;;;;;;;;;;9.30;99.90;;;;;;6244444;23;19953;-85
2022/11/13 21:07:17;;;;;;;;;;;9.40;99.90;;;;;;6243898;23;19927;-84
2022/11/13 21:10:04;;;;;;;;;;;9.40;99.90;;;;;;6220757;23;20285;-85
2022/11/13 21:12:48;;;;;;;;;;;9.30;99.90;;;;;;6243169;23;19914;-85
2022/11/13 21:15:32;;;;;;;;;;;9.30;99.90;;;;;;6244322;23;19994;-85
2022/11/13 21:18:17;;;;;;;;;;;9.30;99.90;;;;;;6237679;23;19913;-86
2022/11/13 21:21:13;;;;;;;;;;;9.20;99.90;;;;;;6154006;23;19919;-86
2022/11/13 21:23:58;;;;;;;;;;;9.00;99.90;;;;;;6154050;23;19963;-85
2022/11/13 21:26:42;;;;;;;;;;;8.90;99.90;;;;;;6153890;23;19914;-85
2022/11/13 21:29:26;;;;;;;;;;;8.90;99.90;;;;;;6170644;23;19920;-84
2022/11/13 21:32:10;;;;;;;;;;;8.90;99.90;;;;;;6183642;23;19910;-84
2022/11/13 21:34:57;;;;;;;;;;;9.00;99.90;;;;;;6183601;23;19911;-85
2022/11/13 21:37:42;;;;;;;;;;;8.90;99.90;;;;;;6182042;23;20390;-84
2022/11/13 21:40:26;;;;;;;;;;;8.90;99.90;;;;;;6183102;23;19911;-84
2022/11/13 21:43:10;;;;;;;;;;;9.00;99.90;;;;;;6183602;23;20290;-84
2022/11/13 21:46:01;;;;;;;;;;;8.90;99.90;;;;;;6183318;23;19958;-84
2022/11/13 21:48:46;;;;;;;;;;;8.90;99.90;;;;;;6183065;23;20235;-84
2022/11/13 21:51:31;;;;;;;;;;;8.90;99.90;;;;;;6183434;23;19931;-84
2022/11/13 21:54:15;;;;;;;;;;;8.80;99.90;;;;;;6183370;23;19911;-84
2022/11/13 21:56:59;;;;;;;;;;;8.70;99.90;;;;;;6183152;23;19951;-84
2022/11/13 22:03:17;;;;;;;;;;;8.70;99.90;;;;;;6178899;23;19910;-89
2022/11/13 22:06:30;;;;;;;;;;;;;;;;;;;;;
2022/11/13 22:09:28;;;;;;;;;;;;;;;;;;;;;
2022/11/13 22:19:07;;;;;;;;;;;8.60;99.90;;;;;;6180970;23;19911;-90
2022/11/13 22:22:16;;;;;;;;;;;8.60;99.90;;;;;;6161541;23;19954;-90
2022/11/13 22:28:31;;;;;;;;;;;8.60;99.90;;;;;;6183827;23;19915;-90
2022/11/13 22:31:35;;;;;;;;;;;;;;;;;;;;;
2022/11/13 22:38:02;;;;;;;;;;;8.60;99.90;;;;;;6182398;23;19911;-89
2022/11/13 22:41:00;;;;;;;;;;;;;;;;;;;;;
2022/11/13 22:43:49;;;;;;;;;;;8.60;99.90;;;;;;6184012;23;19986;-89
2022/11/13 22:50:03;;;;;;;;;;;8.60;99.90;;;;;;6180114;23;19919;-89
2022/11/13 22:53:18;;;;;;;;;;;;;;;;;;;;;
2022/11/13 22:59:51;;;;;;;;;;;;;;;;;;;;;
2022/11/13 23:02:41;;;;;;;;;;;8.70;99.90;;;;;;6213825;23;20152;-89
2022/11/13 23:05:46;;;;;;;;;;;;;;;;;;;;;
2022/11/13 23:08:41;;;;;;;;;;;;;;;;;;;;;
2022/11/13 23:11:44;;;;;;;;;;;8.80;99.90;;;;;;6213712;23;19952;-88
2022/11/13 23:20:48;;;;;;;;;;;8.70;99.90;;;;;;6210570;23;19911;-89
2022/11/13 23:26:57;;;;;;;;;;;;;;;;;;;;;
2022/11/13 23:33:05;;;;;;;;;;;;;;;;;;;;;
2022/11/13 23:36:20;;;;;;;;;;;;;;;;;;;;;
2022/11/13 23:39:20;;;;;;;;;;;;;;;;;;;;;
2022/11/13 23:45:39;;;;;;;;;;;;;;;;;;;;;
2022/11/13 23:51:59;;;;;;;;;;;8.50;99.90;;;;;;6180472;23;20034;-88
2022/11/13 23:55:22;;;;;;;;;;;;;;;;;;;;;
2022/11/13 23:58:19;;;;;;;;;;;8.40;99.90;;;;;;6215957;23;19911;-89
